sensor_id;sensor_type;location;lat;lon;timestamp;P1;durP1;ratioP1;P2;durP2;ratioP2
48040;SDS011;33815;48.386;11.738;2023-03-01T00:02:15;21.30;;;12.30;;
48040;SDS011;33815;48.386;11.738;2023-03-01T00:04:40;18.73;;;12.25;;
48040;SDS011;33815;48.386;11.738;2023-03-01T00:07:06;21.20;;;12.20;;
48040;SDS011;33815;48.386;11.738;2023-03-01T00:09:31;17.73;;;11.57;;
48040;SDS011;33815;48.386;11.738;2023-03-01T00:11:56;20.40;;;11.48;;
48040;SDS011;33815;48.386;11.738;2023-03-01T00:14:21;20.40;;;12.43;;
48040;SDS011;33815;48.386;11.738;2023-03-01T00:16:47;18.83;;;12.00;;
48040;SDS011;33815;48.386;11.738;2023-03-01T00:19:13;18.50;;;12.23;;
48040;SDS011;33815;48.386;11.738;2023-03-01T00:21:40;22.05;;;11.65;;
48040;SDS011;33815;48.386;11.738;2023-03-01T00:24:06;18.88;;;12.13;;
48040;SDS011;33815;48.386;11.738;2023-03-01T00:26:31;16.95;;;11.35;;
48040;SDS011;33815;48.386;11.738;2023-03-01T00:28:57;18.95;;;12.15;;
48040;SDS011;33815;48.386;11.738;2023-03-01T00:31:24;20.23;;;11.98;;
48040;SDS011;33815;48.386;11.738;2023-03-01T00:33:52;18.17;;;12.18;;
48040;SDS011;33815;48.386;11.738;2023-03-01T00:36:21;22.50;;;11.73;;
48040;SDS011;33815;48.386;11.738;2023-03-01T00:38:48;19.83;;;11.85;;
48040;SDS011;33815;48.386;11.738;2023-03-01T00:41:14;20.77;;;12.27;;
48040;SDS011;33815;48.386;11.738;2023-03-01T00:43:42;19.77;;;11.95;;
48040;SDS011;33815;48.386;11.738;2023-03-01T00:46:09;21.30;;;11.98;;
48040;SDS011;33815;48.386;11.738;2023-03-01T00:48:39;20.20;;;12.13;;
48040;SDS011;33815;48.386;11.738;2023-03-01T00:51:11;19.05;;;11.82;;
48040;SDS011;33815;48.386;11.738;2023-03-01T00:53:39;22.48;;;11.57;;
48040;SDS011;33815;48.386;11.738;2023-03-01T00:56:05;18.10;;;12.23;;
48040;SDS011;33815;48.386;11.738;2023-03-01T00:58:33;17.20;;;10.65;;
48040;SDS011;33815;48.386;11.738;2023-03-01T01:00:59;19.00;;;11.75;;
48040;SDS011;33815;48.386;11.738;2023-03-01T01:03:25;20.75;;;12.85;;
48040;SDS011;33815;48.386;11.738;2023-03-01T01:05:51;20.23;;;12.45;;
48040;SDS011;33815;48.386;11.738;2023-03-01T01:08:18;21.67;;;11.82;;
48040;SDS011;33815;48.386;11.738;2023-03-01T01:10:44;19.33;;;11.77;;
48040;SDS011;33815;48.386;11.738;2023-03-01T01:13:10;21.02;;;11.15;;
48040;SDS011;33815;48.386;11.738;2023-03-01T01:15:35;20.27;;;11.80;;
48040;SDS011;33815;48.386;11.738;2023-03-01T01:18:01;17.58;;;11.82;;
48040;SDS011;33815;48.386;11.738;2023-03-01T01:20:26;19.58;;;11.05;;
48040;SDS011;33815;48.386;11.738;2023-03-01T01:22:51;20.83;;;11.60;;
48040;SDS011;33815;48.386;11.738;2023-03-01T01:25:17;19.80;;;12.20;;
48040;SDS011;33815;48.386;11.738;2023-03-01T01:27:42;20.90;;;12.20;;
48040;SDS011;33815;48.386;11.738;2023-03-01T01:30:08;19.42;;;11.50;;
48040;SDS011;33815;48.386;11.738;2023-03-01T01:32:33;19.58;;;12.25;;
48040;SDS011;33815;48.386;11.738;2023-03-01T01:34:59;20.00;;;11.75;;
48040;SDS011;33815;48.386;11.738;2023-03-01T01:37:24;18.83;;;12.23;;
48040;SDS011;33815;48.386;11.738;2023-03-01T01:39:56;23.55;;;12.35;;
48040;SDS011;33815;48.386;11.738;2023-03-01T01:42:22;22.40;;;12.93;;
48040;SDS011;33815;48.386;11.738;2023-03-01T01:44:47;22.92;;;12.90;;
48040;SDS011;33815;48.386;11.738;2023-03-01T01:47:16;27.88;;;12.23;;
48040;SDS011;33815;48.386;11.738;2023-03-01T01:49:49;18.30;;;12.15;;
48040;SDS011;33815;48.386;11.738;2023-03-01T01:52:25;22.17;;;12.35;;
48040;SDS011;33815;48.386;11.738;2023-03-01T01:57:27;19.35;;;11.02;;
48040;SDS011;33815;48.386;11.738;2023-03-01T01:59:58;22.73;;;11.90;;
48040;SDS011;33815;48.386;11.738;2023-03-01T02:02:27;18.58;;;12.10;;
48040;SDS011;33815;48.386;11.738;2023-03-01T02:04:55;20.70;;;12.82;;
48040;SDS011;33815;48.386;11.738;2023-03-01T02:07:35;23.10;;;12.38;;
48040;SDS011;33815;48.386;11.738;2023-03-01T02:10:03;22.02;;;12.77;;
48040;SDS011;33815;48.386;11.738;2023-03-01T02:12:29;19.25;;;12.15;;
48040;SDS011;33815;48.386;11.738;2023-03-01T02:14:54;19.60;;;12.07;;
48040;SDS011;33815;48.386;11.738;2023-03-01T02:17:19;20.52;;;11.88;;
48040;SDS011;33815;48.386;11.738;2023-03-01T02:22:34;20.83;;;11.27;;
48040;SDS011;33815;48.386;11.738;2023-03-01T02:25:12;19.60;;;12.18;;
48040;SDS011;33815;48.386;11.738;2023-03-01T02:28:37;19.65;;;11.57;;
48040;SDS011;33815;48.386;11.738;2023-03-01T02:30:41;19.85;;;11.90;;
48040;SDS011;33815;48.386;11.738;2023-03-01T02:35:54;19.75;;;10.40;;
48040;SDS011;33815;48.386;11.738;2023-03-01T02:38:21;17.35;;;12.23;;
48040;SDS011;33815;48.386;11.738;2023-03-01T02:40:48;23.27;;;12.45;;
48040;SDS011;33815;48.386;11.738;2023-03-01T02:43:16;21.38;;;12.35;;
48040;SDS011;33815;48.386;11.738;2023-03-01T02:45:51;19.95;;;11.55;;
48040;SDS011;33815;48.386;11.738;2023-03-01T02:48:18;19.80;;;11.65;;
48040;SDS011;33815;48.386;11.738;2023-03-01T02:50:52;21.08;;;12.07;;
48040;SDS011;33815;48.386;11.738;2023-03-01T02:53:32;21.30;;;12.00;;
48040;SDS011;33815;48.386;11.738;2023-03-01T02:56:06;20.10;;;12.02;;
48040;SDS011;33815;48.386;11.738;2023-03-01T02:58:37;22.73;;;13.18;;
48040;SDS011;33815;48.386;11.738;2023-03-01T03:01:10;19.90;;;13.13;;
48040;SDS011;33815;48.386;11.738;2023-03-01T03:03:36;18.77;;;12.10;;
48040;SDS011;33815;48.386;11.738;2023-03-01T03:06:01;21.85;;;12.48;;
48040;SDS011;33815;48.386;11.738;2023-03-01T03:08:26;24.27;;;12.80;;
48040;SDS011;33815;48.386;11.738;2023-03-01T03:10:52;21.65;;;11.45;;
48040;SDS011;33815;48.386;11.738;2023-03-01T03:13:17;19.45;;;12.80;;
48040;SDS011;33815;48.386;11.738;2023-03-01T03:15:44;21.05;;;12.38;;
48040;SDS011;33815;48.386;11.738;2023-03-01T03:18:11;19.27;;;11.77;;
48040;SDS011;33815;48.386;11.738;2023-03-01T03:20:38;22.38;;;11.23;;
48040;SDS011;33815;48.386;11.738;2023-03-01T03:23:05;22.75;;;12.38;;
48040;SDS011;33815;48.386;11.738;2023-03-01T03:25:30;25.52;;;12.93;;
48040;SDS011;33815;48.386;11.738;2023-03-01T03:27:55;21.17;;;12.35;;
48040;SDS011;33815;48.386;11.738;2023-03-01T03:30:22;20.45;;;12.48;;
48040;SDS011;33815;48.386;11.738;2023-03-01T03:32:57;19.77;;;12.43;;
48040;SDS011;33815;48.386;11.738;2023-03-01T03:35:24;21.10;;;14.18;;
48040;SDS011;33815;48.386;11.738;2023-03-01T03:37:53;22.58;;;13.63;;
48040;SDS011;33815;48.386;11.738;2023-03-01T03:40:34;22.38;;;13.75;;
48040;SDS011;33815;48.386;11.738;2023-03-01T03:45:30;18.27;;;8.70;;
48040;SDS011;33815;48.386;11.738;2023-03-01T03:47:58;23.20;;;12.45;;
48040;SDS011;33815;48.386;11.738;2023-03-01T03:50:24;22.35;;;12.65;;
48040;SDS011;33815;48.386;11.738;2023-03-01T03:52:49;23.38;;;12.05;;
48040;SDS011;33815;48.386;11.738;2023-03-01T03:55:14;19.05;;;12.13;;
48040;SDS011;33815;48.386;11.738;2023-03-01T03:57:44;22.90;;;12.45;;
48040;SDS011;33815;48.386;11.738;2023-03-01T04:00:13;25.50;;;12.65;;
48040;SDS011;33815;48.386;11.738;2023-03-01T04:02:39;26.63;;;13.38;;
48040;SDS011;33815;48.386;11.738;2023-03-01T04:05:06;25.60;;;12.98;;
48040;SDS011;33815;48.386;11.738;2023-03-01T04:07:33;20.92;;;11.35;;
48040;SDS011;33815;48.386;11.738;2023-03-01T04:09:58;22.52;;;13.35;;
48040;SDS011;33815;48.386;11.738;2023-03-01T04:12:24;20.67;;;12.40;;
48040;SDS011;33815;48.386;11.738;2023-03-01T04:14:49;20.85;;;11.80;;
48040;SDS011;33815;48.386;11.738;2023-03-01T04:17:14;20.63;;;12.68;;
48040;SDS011;33815;48.386;11.738;2023-03-01T04:19:39;23.23;;;12.65;;
48040;SDS011;33815;48.386;11.738;2023-03-01T04:22:05;23.75;;;13.82;;
48040;SDS011;33815;48.386;11.738;2023-03-01T04:24:34;21.25;;;12.50;;
48040;SDS011;33815;48.386;11.738;2023-03-01T04:27:00;20.60;;;12.43;;
48040;SDS011;33815;48.386;11.738;2023-03-01T04:29:26;24.25;;;12.57;;
48040;SDS011;33815;48.386;11.738;2023-03-01T04:31:51;21.65;;;12.35;;
48040;SDS011;33815;48.386;11.738;2023-03-01T04:34:16;20.80;;;12.23;;
48040;SDS011;33815;48.386;11.738;2023-03-01T04:36:42;26.55;;;13.18;;
48040;SDS011;33815;48.386;11.738;2023-03-01T04:39:07;22.27;;;13.15;;
48040;SDS011;33815;48.386;11.738;2023-03-01T04:41:37;22.20;;;13.38;;
48040;SDS011;33815;48.386;11.738;2023-03-01T04:44:04;19.40;;;12.85;;
48040;SDS011;33815;48.386;11.738;2023-03-01T04:46:29;21.17;;;12.77;;
48040;SDS011;33815;48.386;11.738;2023-03-01T04:48:55;25.23;;;13.43;;
48040;SDS011;33815;48.386;11.738;2023-03-01T04:51:20;21.10;;;12.70;;
48040;SDS011;33815;48.386;11.738;2023-03-01T04:53:45;21.30;;;12.50;;
48040;SDS011;33815;48.386;11.738;2023-03-01T04:56:11;24.73;;;12.77;;
48040;SDS011;33815;48.386;11.738;2023-03-01T04:58:38;24.67;;;13.95;;
48040;SDS011;33815;48.386;11.738;2023-03-01T05:01:14;23.83;;;13.00;;
48040;SDS011;33815;48.386;11.738;2023-03-01T05:03:43;24.50;;;13.40;;
48040;SDS011;33815;48.386;11.738;2023-03-01T05:06:10;22.23;;;12.82;;
48040;SDS011;33815;48.386;11.738;2023-03-01T05:08:36;23.98;;;13.45;;
48040;SDS011;33815;48.386;11.738;2023-03-01T05:11:02;21.77;;;13.05;;
48040;SDS011;33815;48.386;11.738;2023-03-01T05:13:27;22.40;;;13.15;;
48040;SDS011;33815;48.386;11.738;2023-03-01T05:15:55;23.92;;;13.75;;
48040;SDS011;33815;48.386;11.738;2023-03-01T05:18:22;28.40;;;14.02;;
48040;SDS011;33815;48.386;11.738;2023-03-01T05:20:50;25.23;;;13.57;;
48040;SDS011;33815;48.386;11.738;2023-03-01T05:23:17;25.55;;;13.68;;
48040;SDS011;33815;48.386;11.738;2023-03-01T05:25:43;23.48;;;13.68;;
48040;SDS011;33815;48.386;11.738;2023-03-01T05:28:11;24.75;;;13.57;;
48040;SDS011;33815;48.386;11.738;2023-03-01T05:30:37;24.15;;;14.07;;
48040;SDS011;33815;48.386;11.738;2023-03-01T05:33:04;24.92;;;14.15;;
48040;SDS011;33815;48.386;11.738;2023-03-01T05:35:29;26.35;;;14.07;;
48040;SDS011;33815;48.386;11.738;2023-03-01T05:37:57;26.92;;;14.95;;
48040;SDS011;33815;48.386;11.738;2023-03-01T05:40:23;25.38;;;14.40;;
48040;SDS011;33815;48.386;11.738;2023-03-01T05:42:52;24.83;;;13.10;;
48040;SDS011;33815;48.386;11.738;2023-03-01T05:45:19;26.45;;;14.38;;
48040;SDS011;33815;48.386;11.738;2023-03-01T05:47:46;25.27;;;14.07;;
48040;SDS011;33815;48.386;11.738;2023-03-01T05:50:17;26.10;;;13.48;;
48040;SDS011;33815;48.386;11.738;2023-03-01T05:52:47;25.25;;;13.90;;
48040;SDS011;33815;48.386;11.738;2023-03-01T05:55:18;25.08;;;14.13;;
48040;SDS011;33815;48.386;11.738;2023-03-01T05:57:45;27.38;;;14.50;;
48040;SDS011;33815;48.386;11.738;2023-03-01T06:00:11;25.50;;;13.98;;
48040;SDS011;33815;48.386;11.738;2023-03-01T06:02:37;27.70;;;15.57;;
48040;SDS011;33815;48.386;11.738;2023-03-01T06:05:04;24.75;;;14.38;;
48040;SDS011;33815;48.386;11.738;2023-03-01T06:07:30;24.63;;;14.40;;
48040;SDS011;33815;48.386;11.738;2023-03-01T06:09:56;25.88;;;14.45;;
48040;SDS011;33815;48.386;11.738;2023-03-01T06:12:21;29.10;;;15.95;;
48040;SDS011;33815;48.386;11.738;2023-03-01T06:14:46;24.10;;;13.48;;
48040;SDS011;33815;48.386;11.738;2023-03-01T06:17:14;33.22;;;15.73;;
48040;SDS011;33815;48.386;11.738;2023-03-01T06:19:40;27.70;;;13.88;;
48040;SDS011;33815;48.386;11.738;2023-03-01T06:22:05;27.73;;;14.00;;
48040;SDS011;33815;48.386;11.738;2023-03-01T06:24:30;32.22;;;16.60;;
48040;SDS011;33815;48.386;11.738;2023-03-01T06:26:55;22.77;;;14.00;;
48040;SDS011;33815;48.386;11.738;2023-03-01T06:29:21;26.48;;;14.93;;
48040;SDS011;33815;48.386;11.738;2023-03-01T06:31:47;28.42;;;15.60;;
48040;SDS011;33815;48.386;11.738;2023-03-01T06:34:13;36.42;;;15.60;;
48040;SDS011;33815;48.386;11.738;2023-03-01T06:36:39;30.08;;;15.68;;
48040;SDS011;33815;48.386;11.738;2023-03-01T06:39:05;26.98;;;13.98;;
48040;SDS011;33815;48.386;11.738;2023-03-01T06:41:30;24.15;;;15.07;;
48040;SDS011;33815;48.386;11.738;2023-03-01T06:43:56;26.23;;;15.40;;
48040;SDS011;33815;48.386;11.738;2023-03-01T06:46:21;31.88;;;15.35;;
48040;SDS011;33815;48.386;11.738;2023-03-01T06:48:46;27.00;;;15.38;;
48040;SDS011;33815;48.386;11.738;2023-03-01T06:51:12;24.35;;;13.95;;
48040;SDS011;33815;48.386;11.738;2023-03-01T06:53:37;27.80;;;14.48;;
48040;SDS011;33815;48.386;11.738;2023-03-01T06:56:02;27.15;;;15.00;;
48040;SDS011;33815;48.386;11.738;2023-03-01T06:58:28;30.35;;;16.15;;
48040;SDS011;33815;48.386;11.738;2023-03-01T07:00:53;25.85;;;14.90;;
48040;SDS011;33815;48.386;11.738;2023-03-01T07:03:19;27.27;;;14.82;;
48040;SDS011;33815;48.386;11.738;2023-03-01T07:05:44;32.53;;;15.88;;
48040;SDS011;33815;48.386;11.738;2023-03-01T07:08:10;27.65;;;15.57;;
48040;SDS011;33815;48.386;11.738;2023-03-01T07:10:35;29.38;;;14.57;;
48040;SDS011;33815;48.386;11.738;2023-03-01T07:13:00;26.10;;;14.75;;
48040;SDS011;33815;48.386;11.738;2023-03-01T07:15:26;31.77;;;15.70;;
48040;SDS011;33815;48.386;11.738;2023-03-01T07:17:52;26.25;;;14.85;;
48040;SDS011;33815;48.386;11.738;2023-03-01T07:20:18;25.27;;;15.05;;
48040;SDS011;33815;48.386;11.738;2023-03-01T07:22:49;31.45;;;14.50;;
48040;SDS011;33815;48.386;11.738;2023-03-01T07:25:14;25.40;;;15.15;;
48040;SDS011;33815;48.386;11.738;2023-03-01T07:27:40;27.23;;;14.95;;
48040;SDS011;33815;48.386;11.738;2023-03-01T07:30:05;23.40;;;13.50;;
48040;SDS011;33815;48.386;11.738;2023-03-01T07:32:31;28.55;;;13.98;;
48040;SDS011;33815;48.386;11.738;2023-03-01T07:34:56;28.05;;;14.68;;
48040;SDS011;33815;48.386;11.738;2023-03-01T07:37:21;31.35;;;15.07;;
48040;SDS011;33815;48.386;11.738;2023-03-01T07:39:47;27.75;;;15.13;;
48040;SDS011;33815;48.386;11.738;2023-03-01T07:42:12;28.20;;;16.13;;
48040;SDS011;33815;48.386;11.738;2023-03-01T07:44:37;26.10;;;15.85;;
48040;SDS011;33815;48.386;11.738;2023-03-01T07:47:03;26.83;;;14.48;;
48040;SDS011;33815;48.386;11.738;2023-03-01T07:49:29;24.75;;;14.43;;
48040;SDS011;33815;48.386;11.738;2023-03-01T07:51:54;24.48;;;14.20;;
48040;SDS011;33815;48.386;11.738;2023-03-01T07:54:20;24.30;;;14.15;;
48040;SDS011;33815;48.386;11.738;2023-03-01T07:56:45;26.23;;;13.07;;
48040;SDS011;33815;48.386;11.738;2023-03-01T07:59:10;23.38;;;14.63;;
48040;SDS011;33815;48.386;11.738;2023-03-01T08:01:36;23.23;;;13.75;;
48040;SDS011;33815;48.386;11.738;2023-03-01T08:04:01;21.17;;;13.75;;
48040;SDS011;33815;48.386;11.738;2023-03-01T08:06:26;22.23;;;14.30;;
48040;SDS011;33815;48.386;11.738;2023-03-01T08:08:52;28.83;;;15.85;;
48040;SDS011;33815;48.386;11.738;2023-03-01T08:11:20;26.35;;;14.60;;
48040;SDS011;33815;48.386;11.738;2023-03-01T08:13:47;28.42;;;14.23;;
48040;SDS011;33815;48.386;11.738;2023-03-01T08:16:13;26.63;;;14.10;;
48040;SDS011;33815;48.386;11.738;2023-03-01T08:18:39;23.00;;;13.07;;
48040;SDS011;33815;48.386;11.738;2023-03-01T08:21:09;22.85;;;14.23;;
48040;SDS011;33815;48.386;11.738;2023-03-01T08:23:36;26.52;;;14.63;;
48040;SDS011;33815;48.386;11.738;2023-03-01T08:26:05;20.67;;;13.68;;
48040;SDS011;33815;48.386;11.738;2023-03-01T08:28:38;28.35;;;14.00;;
48040;SDS011;33815;48.386;11.738;2023-03-01T08:31:18;26.25;;;14.45;;
48040;SDS011;33815;48.386;11.738;2023-03-01T08:33:46;27.30;;;14.23;;
48040;SDS011;33815;48.386;11.738;2023-03-01T08:36:20;28.70;;;14.93;;
48040;SDS011;33815;48.386;11.738;2023-03-01T08:38:45;25.15;;;13.98;;
48040;SDS011;33815;48.386;11.738;2023-03-01T08:41:11;21.50;;;13.18;;
48040;SDS011;33815;48.386;11.738;2023-03-01T08:43:36;23.45;;;13.45;;
48040;SDS011;33815;48.386;11.738;2023-03-01T08:46:01;27.05;;;14.90;;
48040;SDS011;33815;48.386;11.738;2023-03-01T08:48:27;26.40;;;14.52;;
48040;SDS011;33815;48.386;11.738;2023-03-01T08:50:53;25.25;;;14.95;;
48040;SDS011;33815;48.386;11.738;2023-03-01T08:53:18;16.60;;;9.18;;
48040;SDS011;33815;48.386;11.738;2023-03-01T08:55:43;27.20;;;15.48;;
48040;SDS011;33815;48.386;11.738;2023-03-01T08:58:09;23.02;;;13.65;;
48040;SDS011;33815;48.386;11.738;2023-03-01T09:00:34;23.80;;;13.32;;
48040;SDS011;33815;48.386;11.738;2023-03-01T09:02:59;23.25;;;14.18;;
48040;SDS011;33815;48.386;11.738;2023-03-01T09:05:24;23.60;;;13.98;;
48040;SDS011;33815;48.386;11.738;2023-03-01T09:07:50;24.45;;;14.85;;
48040;SDS011;33815;48.386;11.738;2023-03-01T09:10:15;24.95;;;13.63;;
48040;SDS011;33815;48.386;11.738;2023-03-01T09:12:40;25.73;;;14.75;;
48040;SDS011;33815;48.386;11.738;2023-03-01T09:15:06;25.55;;;14.35;;
48040;SDS011;33815;48.386;11.738;2023-03-01T09:17:32;24.13;;;14.55;;
48040;SDS011;33815;48.386;11.738;2023-03-01T09:19:57;24.02;;;13.50;;
48040;SDS011;33815;48.386;11.738;2023-03-01T09:22:22;26.08;;;14.73;;
48040;SDS011;33815;48.386;11.738;2023-03-01T09:24:47;23.92;;;13.30;;
48040;SDS011;33815;48.386;11.738;2023-03-01T09:27:13;29.17;;;13.68;;
48040;SDS011;33815;48.386;11.738;2023-03-01T09:29:39;20.77;;;12.73;;
48040;SDS011;33815;48.386;11.738;2023-03-01T09:32:04;23.60;;;13.40;;
48040;SDS011;33815;48.386;11.738;2023-03-01T09:34:30;25.25;;;14.23;;
48040;SDS011;33815;48.386;11.738;2023-03-01T09:36:57;27.00;;;14.35;;
48040;SDS011;33815;48.386;11.738;2023-03-01T09:39:22;22.35;;;13.63;;
48040;SDS011;33815;48.386;11.738;2023-03-01T09:41:49;24.60;;;13.63;;
48040;SDS011;33815;48.386;11.738;2023-03-01T09:47:16;24.23;;;12.93;;
48040;SDS011;33815;48.386;11.738;2023-03-01T09:49:44;25.70;;;12.98;;
48040;SDS011;33815;48.386;11.738;2023-03-01T09:54:49;26.90;;;13.65;;
48040;SDS011;33815;48.386;11.738;2023-03-01T09:57:19;20.70;;;12.95;;
48040;SDS011;33815;48.386;11.738;2023-03-01T10:07:43;24.40;;;13.00;;
48040;SDS011;33815;48.386;11.738;2023-03-01T10:10:28;23.98;;;14.02;;
48040;SDS011;33815;48.386;11.738;2023-03-01T10:13:00;23.45;;;12.68;;
48040;SDS011;33815;48.386;11.738;2023-03-01T10:15:39;20.00;;;11.85;;
48040;SDS011;33815;48.386;11.738;2023-03-01T10:18:18;23.67;;;14.40;;
48040;SDS011;33815;48.386;11.738;2023-03-01T10:20:53;24.83;;;14.20;;
48040;SDS011;33815;48.386;11.738;2023-03-01T10:23:22;23.52;;;13.60;;
48040;SDS011;33815;48.386;11.738;2023-03-01T10:31:20;20.98;;;13.25;;
48040;SDS011;33815;48.386;11.738;2023-03-01T10:33:54;22.02;;;12.10;;
48040;SDS011;33815;48.386;11.738;2023-03-01T10:36:22;21.58;;;13.05;;
48040;SDS011;33815;48.386;11.738;2023-03-01T10:38:52;21.55;;;12.63;;
48040;SDS011;33815;48.386;11.738;2023-03-01T10:41:23;24.05;;;14.10;;
48040;SDS011;33815;48.386;11.738;2023-03-01T10:43:51;20.65;;;12.30;;
48040;SDS011;33815;48.386;11.738;2023-03-01T10:49:32;22.38;;;13.82;;
48040;SDS011;33815;48.386;11.738;2023-03-01T10:51:42;22.00;;;13.43;;
48040;SDS011;33815;48.386;11.738;2023-03-01T10:54:17;22.85;;;12.75;;
48040;SDS011;33815;48.386;11.738;2023-03-01T10:56:47;20.88;;;12.90;;
48040;SDS011;33815;48.386;11.738;2023-03-01T10:59:47;22.23;;;13.60;;
48040;SDS011;33815;48.386;11.738;2023-03-01T11:04:34;22.90;;;13.43;;
48040;SDS011;33815;48.386;11.738;2023-03-01T11:07:00;20.60;;;13.07;;
48040;SDS011;33815;48.386;11.738;2023-03-01T11:09:26;22.77;;;12.38;;
48040;SDS011;33815;48.386;11.738;2023-03-01T11:12:02;19.70;;;11.20;;
48040;SDS011;33815;48.386;11.738;2023-03-01T11:14:35;19.90;;;13.15;;
48040;SDS011;33815;48.386;11.738;2023-03-01T11:19:29;19.83;;;12.50;;
48040;SDS011;33815;48.386;11.738;2023-03-01T11:22:00;20.63;;;13.23;;
48040;SDS011;33815;48.386;11.738;2023-03-01T11:24:38;21.08;;;13.27;;
48040;SDS011;33815;48.386;11.738;2023-03-01T11:27:11;23.20;;;14.20;;
48040;SDS011;33815;48.386;11.738;2023-03-01T11:29:43;22.40;;;13.00;;
48040;SDS011;33815;48.386;11.738;2023-03-01T11:32:12;20.17;;;12.48;;
48040;SDS011;33815;48.386;11.738;2023-03-01T11:37:36;23.95;;;13.43;;
48040;SDS011;33815;48.386;11.738;2023-03-01T11:40:24;18.10;;;12.63;;
48040;SDS011;33815;48.386;11.738;2023-03-01T11:45:35;23.80;;;13.02;;
48040;SDS011;33815;48.386;11.738;2023-03-01T11:48:31;22.83;;;12.65;;
48040;SDS011;33815;48.386;11.738;2023-03-01T11:51:15;18.52;;;11.93;;
48040;SDS011;33815;48.386;11.738;2023-03-01T11:56:38;19.35;;;11.63;;
48040;SDS011;33815;48.386;11.738;2023-03-01T12:05:17;14.95;;;10.02;;
48040;SDS011;33815;48.386;11.738;2023-03-01T12:19:11;20.02;;;12.27;;
48040;SDS011;33815;48.386;11.738;2023-03-01T12:22:00;17.50;;;11.43;;
48040;SDS011;33815;48.386;11.738;2023-03-01T12:24:57;20.08;;;11.85;;
48040;SDS011;33815;48.386;11.738;2023-03-01T12:27:51;21.25;;;12.20;;
48040;SDS011;33815;48.386;11.738;2023-03-01T12:39:15;18.45;;;10.93;;
48040;SDS011;33815;48.386;11.738;2023-03-01T12:47:26;18.77;;;11.57;;
48040;SDS011;33815;48.386;11.738;2023-03-01T12:50:05;16.77;;;10.52;;
48040;SDS011;33815;48.386;11.738;2023-03-01T12:52:53;16.25;;;11.90;;
48040;SDS011;33815;48.386;11.738;2023-03-01T12:55:26;19.20;;;11.57;;
48040;SDS011;33815;48.386;11.738;2023-03-01T12:58:32;17.35;;;11.48;;
48040;SDS011;33815;48.386;11.738;2023-03-01T13:03:58;17.50;;;11.20;;
48040;SDS011;33815;48.386;11.738;2023-03-01T13:23:13;18.83;;;11.17;;
48040;SDS011;33815;48.386;11.738;2023-03-01T13:26:00;17.15;;;10.88;;
48040;SDS011;33815;48.386;11.738;2023-03-01T13:28:38;19.38;;;10.48;;
48040;SDS011;33815;48.386;11.738;2023-03-01T13:31:07;15.65;;;10.98;;
48040;SDS011;33815;48.386;11.738;2023-03-01T13:34:07;15.93;;;10.93;;
48040;SDS011;33815;48.386;11.738;2023-03-01T13:39:02;13.50;;;10.23;;
48040;SDS011;33815;48.386;11.738;2023-03-01T13:46:48;16.75;;;11.00;;
48040;SDS011;33815;48.386;11.738;2023-03-01T13:49:19;17.02;;;10.73;;
48040;SDS011;33815;48.386;11.738;2023-03-01T13:51:47;19.35;;;11.20;;
48040;SDS011;33815;48.386;11.738;2023-03-01T13:54:14;14.98;;;10.18;;
48040;SDS011;33815;48.386;11.738;2023-03-01T13:56:41;13.80;;;9.65;;
48040;SDS011;33815;48.386;11.738;2023-03-01T13:59:15;17.45;;;10.65;;
48040;SDS011;33815;48.386;11.738;2023-03-01T14:01:43;17.88;;;11.05;;
48040;SDS011;33815;48.386;11.738;2023-03-01T14:06:48;17.40;;;10.27;;
48040;SDS011;33815;48.386;11.738;2023-03-01T14:09:23;13.95;;;10.13;;
48040;SDS011;33815;48.386;11.738;2023-03-01T14:14:40;17.85;;;10.68;;
48040;SDS011;33815;48.386;11.738;2023-03-01T14:19:47;13.88;;;9.18;;
48040;SDS011;33815;48.386;11.738;2023-03-01T14:22:22;15.15;;;10.30;;
48040;SDS011;33815;48.386;11.738;2023-03-01T14:27:42;13.48;;;8.73;;
48040;SDS011;33815;48.386;11.738;2023-03-01T14:30:15;16.23;;;9.82;;
48040;SDS011;33815;48.386;11.738;2023-03-01T14:32:54;14.05;;;10.18;;
48040;SDS011;33815;48.386;11.738;2023-03-01T14:35:29;16.08;;;9.98;;
48040;SDS011;33815;48.386;11.738;2023-03-01T14:37:56;15.43;;;10.05;;
48040;SDS011;33815;48.386;11.738;2023-03-01T14:42:49;14.38;;;8.85;;
48040;SDS011;33815;48.386;11.738;2023-03-01T14:45:15;13.68;;;9.15;;
48040;SDS011;33815;48.386;11.738;2023-03-01T14:47:41;16.83;;;9.18;;
48040;SDS011;33815;48.386;11.738;2023-03-01T14:50:19;15.00;;;9.43;;
48040;SDS011;33815;48.386;11.738;2023-03-01T14:52:48;15.07;;;9.23;;
48040;SDS011;33815;48.386;11.738;2023-03-01T14:55:27;13.98;;;9.13;;
48040;SDS011;33815;48.386;11.738;2023-03-01T14:57:57;15.27;;;8.95;;
48040;SDS011;33815;48.386;11.738;2023-03-01T15:00:24;14.07;;;8.98;;
48040;SDS011;33815;48.386;11.738;2023-03-01T15:02:52;13.18;;;8.60;;
48040;SDS011;33815;48.386;11.738;2023-03-01T15:05:27;13.77;;;9.05;;
48040;SDS011;33815;48.386;11.738;2023-03-01T15:07:54;9.02;;;6.47;;
48040;SDS011;33815;48.386;11.738;2023-03-01T15:10:22;15.48;;;8.88;;
48040;SDS011;33815;48.386;11.738;2023-03-01T15:12:52;13.00;;;8.45;;
48040;SDS011;33815;48.386;11.738;2023-03-01T15:17:55;14.45;;;8.13;;
48040;SDS011;33815;48.386;11.738;2023-03-01T15:20:23;12.43;;;9.15;;
48040;SDS011;33815;48.386;11.738;2023-03-01T15:22:52;13.98;;;7.97;;
48040;SDS011;33815;48.386;11.738;2023-03-01T15:25:19;14.85;;;9.65;;
48040;SDS011;33815;48.386;11.738;2023-03-01T15:27:48;9.50;;;7.43;;
48040;SDS011;33815;48.386;11.738;2023-03-01T15:30:20;13.35;;;9.57;;
48040;SDS011;33815;48.386;11.738;2023-03-01T15:32:48;13.05;;;7.40;;
48040;SDS011;33815;48.386;11.738;2023-03-01T15:35:41;10.68;;;7.82;;
48040;SDS011;33815;48.386;11.738;2023-03-01T15:40:57;11.23;;;7.40;;
48040;SDS011;33815;48.386;11.738;2023-03-01T15:43:38;12.90;;;7.05;;
48040;SDS011;33815;48.386;11.738;2023-03-01T15:46:11;11.50;;;7.28;;
48040;SDS011;33815;48.386;11.738;2023-03-01T15:48:51;10.93;;;6.85;;
48040;SDS011;33815;48.386;11.738;2023-03-01T15:51:28;12.05;;;7.93;;
48040;SDS011;33815;48.386;11.738;2023-03-01T15:54:03;9.88;;;6.43;;
48040;SDS011;33815;48.386;11.738;2023-03-01T15:56:32;11.40;;;6.38;;
48040;SDS011;33815;48.386;11.738;2023-03-01T15:58:58;12.38;;;6.50;;
48040;SDS011;33815;48.386;11.738;2023-03-01T16:01:24;9.70;;;5.68;;
48040;SDS011;33815;48.386;11.738;2023-03-01T16:03:50;15.32;;;6.35;;
48040;SDS011;33815;48.386;11.738;2023-03-01T16:06:15;8.63;;;5.67;;
48040;SDS011;33815;48.386;11.738;2023-03-01T16:08:40;13.52;;;6.30;;
48040;SDS011;33815;48.386;11.738;2023-03-01T16:11:13;11.00;;;5.97;;
48040;SDS011;33815;48.386;11.738;2023-03-01T16:13:41;10.93;;;6.07;;
48040;SDS011;33815;48.386;11.738;2023-03-01T16:16:06;10.10;;;6.68;;
48040;SDS011;33815;48.386;11.738;2023-03-01T16:18:34;8.85;;;5.70;;
48040;SDS011;33815;48.386;11.738;2023-03-01T16:20:59;9.50;;;6.33;;
48040;SDS011;33815;48.386;11.738;2023-03-01T16:23:25;11.07;;;6.15;;
48040;SDS011;33815;48.386;11.738;2023-03-01T16:25:50;11.88;;;6.63;;